Weather at Thevenard Island Airport

Public forecast

Using degrees Celsius for public forecast. Weather courtesy of forecast.io.

Closest aviation weather report (METAR) to Thevenard Island Airport

Report is more than 6 hours old.

Closest report is Barrow Island Airport, 41.9 nm (77.6 km) NNE. Retrieved 2022/06/26 16:04 UTC (3 days ago):

YBWX 261604Z AUTO 11020KT //// // ////// 24/13 Q1020

Closest aviation forecast (TAF) to Thevenard Island Airport

Closest forecast is Learmonth Airport, 69.4 nm (128.6 km) SW. Retrieved 2022/06/29 06:36 UTC (4 hours ago):

TAF YPLM 290516Z 2906/3006 08012KT CAVOK FM290800 VRB03KT CAVOK FM291100 23008KT CAVOK FM291800 10014KT CAVOK FM300000 09016G26KT CAVOK